sensor_id;sensor_type;location;lat;lon;timestamp;temperature;humidity
26505;DHT22;19493;48.042;7.584;2023-12-20T00:02:18;5.60;99.90
26505;DHT22;19493;48.042;7.584;2023-12-20T00:04:44;5.60;99.90
26505;DHT22;19493;48.042;7.584;2023-12-20T00:07:09;5.60;99.90
26505;DHT22;19493;48.042;7.584;2023-12-20T00:09:35;5.60;99.90
26505;DHT22;19493;48.042;7.584;2023-12-20T00:12:00;5.60;99.90
26505;DHT22;19493;48.042;7.584;2023-12-20T00:14:26;5.60;99.90
26505;DHT22;19493;48.042;7.584;2023-12-20T00:16:51;5.60;99.90
26505;DHT22;19493;48.042;7.584;2023-12-20T00:19:17;5.60;99.90
26505;DHT22;19493;48.042;7.584;2023-12-20T00:21:43;5.70;99.90
26505;DHT22;19493;48.042;7.584;2023-12-20T00:24:08;5.70;99.90
26505;DHT22;19493;48.042;7.584;2023-12-20T00:26:34;5.80;99.90
26505;DHT22;19493;48.042;7.584;2023-12-20T00:28:59;5.70;99.90
26505;DHT22;19493;48.042;7.584;2023-12-20T00:31:25;5.60;99.90
26505;DHT22;19493;48.042;7.584;2023-12-20T00:33:51;5.50;99.90
26505;DHT22;19493;48.042;7.584;2023-12-20T00:36:16;5.50;99.90
26505;DHT22;19493;48.042;7.584;2023-12-20T00:38:42;5.50;99.90
26505;DHT22;19493;48.042;7.584;2023-12-20T00:41:07;5.40;99.90
26505;DHT22;19493;48.042;7.584;2023-12-20T00:43:33;5.40;99.90
26505;DHT22;19493;48.042;7.584;2023-12-20T00:45:58;5.40;99.90
26505;DHT22;19493;48.042;7.584;2023-12-20T00:48:25;5.40;99.90
26505;DHT22;19493;48.042;7.584;2023-12-20T00:50:52;5.40;99.90
26505;DHT22;19493;48.042;7.584;2023-12-20T00:53:18;5.40;99.90
26505;DHT22;19493;48.042;7.584;2023-12-20T00:55:44;5.40;99.90
26505;DHT22;19493;48.042;7.584;2023-12-20T00:58:10;5.40;99.90
26505;DHT22;19493;48.042;7.584;2023-12-20T01:00:36;5.40;99.90
26505;DHT22;19493;48.042;7.584;2023-12-20T01:03:01;5.40;99.90
26505;DHT22;19493;48.042;7.584;2023-12-20T01:05:27;5.40;99.90
26505;DHT22;19493;48.042;7.584;2023-12-20T01:07:52;5.50;99.90
26505;DHT22;19493;48.042;7.584;2023-12-20T01:10:18;5.50;99.90
26505;DHT22;19493;48.042;7.584;2023-12-20T01:12:44;5.50;99.90
26505;DHT22;19493;48.042;7.584;2023-12-20T01:15:10;5.50;99.90
26505;DHT22;19493;48.042;7.584;2023-12-20T01:17:35;5.50;99.90
26505;DHT22;19493;48.042;7.584;2023-12-20T01:20:01;5.50;99.90
26505;DHT22;19493;48.042;7.584;2023-12-20T01:22:27;5.50;99.90
26505;DHT22;19493;48.042;7.584;2023-12-20T01:24:53;5.50;99.90
26505;DHT22;19493;48.042;7.584;2023-12-20T01:27:18;5.50;99.90
26505;DHT22;19493;48.042;7.584;2023-12-20T01:29:44;5.50;99.90
26505;DHT22;19493;48.042;7.584;2023-12-20T01:32:09;5.60;99.90
26505;DHT22;19493;48.042;7.584;2023-12-20T01:34:35;5.60;99.90
26505;DHT22;19493;48.042;7.584;2023-12-20T01:37:01;5.60;99.90
26505;DHT22;19493;48.042;7.584;2023-12-20T01:39:28;5.60;99.90
26505;DHT22;19493;48.042;7.584;2023-12-20T01:41:53;5.60;99.90
26505;DHT22;19493;48.042;7.584;2023-12-20T01:44:19;5.60;99.90
26505;DHT22;19493;48.042;7.584;2023-12-20T01:46:45;5.50;99.90
26505;DHT22;19493;48.042;7.584;2023-12-20T01:49:12;5.50;99.90
26505;DHT22;19493;48.042;7.584;2023-12-20T01:51:37;5.50;99.90
26505;DHT22;19493;48.042;7.584;2023-12-20T01:54:03;5.50;99.90
26505;DHT22;19493;48.042;7.584;2023-12-20T01:56:30;5.50;99.90
26505;DHT22;19493;48.042;7.584;2023-12-20T01:58:56;5.50;99.90
26505;DHT22;19493;48.042;7.584;2023-12-20T02:01:22;5.50;99.90
26505;DHT22;19493;48.042;7.584;2023-12-20T02:03:48;5.50;99.90
26505;DHT22;19493;48.042;7.584;2023-12-20T02:06:14;5.50;99.90
26505;DHT22;19493;48.042;7.584;2023-12-20T02:08:40;5.40;99.90
26505;DHT22;19493;48.042;7.584;2023-12-20T02:11:06;5.40;99.90
26505;DHT22;19493;48.042;7.584;2023-12-20T02:13:31;5.40;99.90
26505;DHT22;19493;48.042;7.584;2023-12-20T02:15:57;5.40;99.90
26505;DHT22;19493;48.042;7.584;2023-12-20T02:18:23;5.40;99.90
26505;DHT22;19493;48.042;7.584;2023-12-20T02:20:49;5.40;99.90
26505;DHT22;19493;48.042;7.584;2023-12-20T02:23:15;5.40;99.90
26505;DHT22;19493;48.042;7.584;2023-12-20T02:25:40;5.40;99.90
26505;DHT22;19493;48.042;7.584;2023-12-20T02:28:06;5.40;99.90
26505;DHT22;19493;48.042;7.584;2023-12-20T02:30:32;5.40;99.90
26505;DHT22;19493;48.042;7.584;2023-12-20T02:32:59;5.40;99.90
26505;DHT22;19493;48.042;7.584;2023-12-20T02:35:26;5.40;99.90
26505;DHT22;19493;48.042;7.584;2023-12-20T02:37:51;5.40;99.90
26505;DHT22;19493;48.042;7.584;2023-12-20T02:40:17;5.50;99.90
26505;DHT22;19493;48.042;7.584;2023-12-20T02:42:43;5.40;99.90
26505;DHT22;19493;48.042;7.584;2023-12-20T02:45:08;5.40;99.90
26505;DHT22;19493;48.042;7.584;2023-12-20T02:47:34;5.40;99.90
26505;DHT22;19493;48.042;7.584;2023-12-20T02:50:00;5.40;99.90
26505;DHT22;19493;48.042;7.584;2023-12-20T02:52:27;5.50;99.90
26505;DHT22;19493;48.042;7.584;2023-12-20T02:54:52;5.40;99.90
26505;DHT22;19493;48.042;7.584;2023-12-20T02:57:18;5.50;99.90
26505;DHT22;19493;48.042;7.584;2023-12-20T02:59:44;5.50;99.90
26505;DHT22;19493;48.042;7.584;2023-12-20T03:02:09;5.50;99.90
26505;DHT22;19493;48.042;7.584;2023-12-20T03:04:35;5.50;99.90
26505;DHT22;19493;48.042;7.584;2023-12-20T03:07:00;5.60;99.90
26505;DHT22;19493;48.042;7.584;2023-12-20T03:09:26;5.50;99.90
26505;DHT22;19493;48.042;7.584;2023-12-20T03:11:51;5.60;99.90
26505;DHT22;19493;48.042;7.584;2023-12-20T03:14:17;5.50;99.90
26505;DHT22;19493;48.042;7.584;2023-12-20T03:16:47;5.60;99.90
26505;DHT22;19493;48.042;7.584;2023-12-20T03:19:12;5.60;99.90
26505;DHT22;19493;48.042;7.584;2023-12-20T03:21:38;5.60;99.90
26505;DHT22;19493;48.042;7.584;2023-12-20T03:24:04;5.60;99.90
26505;DHT22;19493;48.042;7.584;2023-12-20T03:26:30;5.70;99.90
26505;DHT22;19493;48.042;7.584;2023-12-20T03:28:55;5.60;99.90
26505;DHT22;19493;48.042;7.584;2023-12-20T03:31:21;5.70;99.90
26505;DHT22;19493;48.042;7.584;2023-12-20T03:33:47;5.70;99.90
26505;DHT22;19493;48.042;7.584;2023-12-20T03:36:12;5.70;99.90
26505;DHT22;19493;48.042;7.584;2023-12-20T03:38:38;5.70;99.90
26505;DHT22;19493;48.042;7.584;2023-12-20T03:41:04;5.70;99.90
26505;DHT22;19493;48.042;7.584;2023-12-20T03:43:29;5.70;99.90
26505;DHT22;19493;48.042;7.584;2023-12-20T03:45:55;5.70;99.90
26505;DHT22;19493;48.042;7.584;2023-12-20T03:48:20;5.70;99.90
26505;DHT22;19493;48.042;7.584;2023-12-20T03:50:46;5.70;99.90
26505;DHT22;19493;48.042;7.584;2023-12-20T03:53:12;5.70;99.90
26505;DHT22;19493;48.042;7.584;2023-12-20T03:55:38;5.70;99.90
26505;DHT22;19493;48.042;7.584;2023-12-20T03:58:03;5.70;99.90
26505;DHT22;19493;48.042;7.584;2023-12-20T04:00:29;5.70;99.90
26505;DHT22;19493;48.042;7.584;2023-12-20T04:02:54;5.70;99.90
26505;DHT22;19493;48.042;7.584;2023-12-20T04:05:20;5.70;99.90
26505;DHT22;19493;48.042;7.584;2023-12-20T04:07:45;5.70;99.90
26505;DHT22;19493;48.042;7.584;2023-12-20T04:10:11;5.70;99.90
26505;DHT22;19493;48.042;7.584;2023-12-20T04:12:36;5.70;99.90
26505;DHT22;19493;48.042;7.584;2023-12-20T04:15:02;5.70;99.90
26505;DHT22;19493;48.042;7.584;2023-12-20T04:17:34;5.70;99.90
26505;DHT22;19493;48.042;7.584;2023-12-20T04:20:00;5.70;99.90
26505;DHT22;19493;48.042;7.584;2023-12-20T04:22:25;5.70;99.90
26505;DHT22;19493;48.042;7.584;2023-12-20T04:24:51;5.70;99.90
26505;DHT22;19493;48.042;7.584;2023-12-20T04:27:16;5.70;99.90
26505;DHT22;19493;48.042;7.584;2023-12-20T04:29:42;5.80;99.90
26505;DHT22;19493;48.042;7.584;2023-12-20T04:32:08;5.80;99.90
26505;DHT22;19493;48.042;7.584;2023-12-20T04:34:33;5.80;99.90
26505;DHT22;19493;48.042;7.584;2023-12-20T04:36:59;5.80;99.90
26505;DHT22;19493;48.042;7.584;2023-12-20T04:39:24;5.80;99.90
26505;DHT22;19493;48.042;7.584;2023-12-20T04:41:50;5.80;99.90
26505;DHT22;19493;48.042;7.584;2023-12-20T04:44:15;5.80;99.90
26505;DHT22;19493;48.042;7.584;2023-12-20T04:46:41;5.80;99.90
26505;DHT22;19493;48.042;7.584;2023-12-20T04:49:07;5.80;99.90
26505;DHT22;19493;48.042;7.584;2023-12-20T04:51:35;5.80;99.90
26505;DHT22;19493;48.042;7.584;2023-12-20T04:54:02;5.80;99.90
26505;DHT22;19493;48.042;7.584;2023-12-20T04:56:27;5.80;99.90
26505;DHT22;19493;48.042;7.584;2023-12-20T04:58:53;5.70;99.90
26505;DHT22;19493;48.042;7.584;2023-12-20T05:01:18;5.70;99.90
26505;DHT22;19493;48.042;7.584;2023-12-20T05:03:44;5.80;99.90
26505;DHT22;19493;48.042;7.584;2023-12-20T05:06:10;5.70;99.90
26505;DHT22;19493;48.042;7.584;2023-12-20T05:08:36;5.70;99.90
26505;DHT22;19493;48.042;7.584;2023-12-20T05:11:01;5.70;99.90
26505;DHT22;19493;48.042;7.584;2023-12-20T05:13:27;5.70;99.90
26505;DHT22;19493;48.042;7.584;2023-12-20T05:15:52;5.70;99.90
26505;DHT22;19493;48.042;7.584;2023-12-20T05:18:18;5.70;99.90
26505;DHT22;19493;48.042;7.584;2023-12-20T05:20:44;5.70;99.90
26505;DHT22;19493;48.042;7.584;2023-12-20T05:23:09;5.60;99.90
26505;DHT22;19493;48.042;7.584;2023-12-20T05:25:35;5.60;99.90
26505;DHT22;19493;48.042;7.584;2023-12-20T05:28:00;5.60;99.90
26505;DHT22;19493;48.042;7.584;2023-12-20T05:30:26;5.60;99.90
26505;DHT22;19493;48.042;7.584;2023-12-20T05:32:52;5.60;99.90
26505;DHT22;19493;48.042;7.584;2023-12-20T05:35:17;5.60;99.90
26505;DHT22;19493;48.042;7.584;2023-12-20T05:37:43;5.60;99.90
26505;DHT22;19493;48.042;7.584;2023-12-20T05:40:09;5.50;99.90
26505;DHT22;19493;48.042;7.584;2023-12-20T05:42:37;5.50;99.90
26505;DHT22;19493;48.042;7.584;2023-12-20T05:45:04;5.50;99.90
26505;DHT22;19493;48.042;7.584;2023-12-20T05:47:30;5.50;99.90
26505;DHT22;19493;48.042;7.584;2023-12-20T05:49:55;5.50;99.90
26505;DHT22;19493;48.042;7.584;2023-12-20T05:52:21;5.50;99.90
26505;DHT22;19493;48.042;7.584;2023-12-20T05:54:47;5.50;99.90
26505;DHT22;19493;48.042;7.584;2023-12-20T05:57:12;5.50;99.90
26505;DHT22;19493;48.042;7.584;2023-12-20T05:59:38;5.50;99.90
26505;DHT22;19493;48.042;7.584;2023-12-20T06:02:04;5.50;99.90
26505;DHT22;19493;48.042;7.584;2023-12-20T06:04:30;5.50;99.90
26505;DHT22;19493;48.042;7.584;2023-12-20T06:06:55;5.50;99.90
26505;DHT22;19493;48.042;7.584;2023-12-20T06:09:21;5.50;99.90
26505;DHT22;19493;48.042;7.584;2023-12-20T06:11:46;5.40;99.90
26505;DHT22;19493;48.042;7.584;2023-12-20T06:14:12;5.40;99.90
26505;DHT22;19493;48.042;7.584;2023-12-20T06:16:38;5.40;99.90
26505;DHT22;19493;48.042;7.584;2023-12-20T06:19:03;5.40;99.90
26505;DHT22;19493;48.042;7.584;2023-12-20T06:21:29;5.40;99.90
26505;DHT22;19493;48.042;7.584;2023-12-20T06:23:54;5.40;99.90
26505;DHT22;19493;48.042;7.584;2023-12-20T06:26:20;5.40;99.90
26505;DHT22;19493;48.042;7.584;2023-12-20T06:28:46;5.40;99.90
26505;DHT22;19493;48.042;7.584;2023-12-20T06:31:11;5.40;99.90
26505;DHT22;19493;48.042;7.584;2023-12-20T06:33:37;5.30;99.90
26505;DHT22;19493;48.042;7.584;2023-12-20T06:36:06;5.20;99.90
26505;DHT22;19493;48.042;7.584;2023-12-20T06:38:31;5.10;99.90
26505;DHT22;19493;48.042;7.584;2023-12-20T06:40:57;4.90;99.90
26505;DHT22;19493;48.042;7.584;2023-12-20T06:43:24;4.80;99.90
26505;DHT22;19493;48.042;7.584;2023-12-20T06:45:49;4.80;99.90
26505;DHT22;19493;48.042;7.584;2023-12-20T06:48:16;4.90;99.90
26505;DHT22;19493;48.042;7.584;2023-12-20T06:50:41;5.00;99.90
26505;DHT22;19493;48.042;7.584;2023-12-20T06:53:07;5.10;99.90
26505;DHT22;19493;48.042;7.584;2023-12-20T06:55:34;5.10;99.90
26505;DHT22;19493;48.042;7.584;2023-12-20T06:58:01;5.20;99.90
26505;DHT22;19493;48.042;7.584;2023-12-20T07:00:27;5.20;99.90
26505;DHT22;19493;48.042;7.584;2023-12-20T07:02:53;5.30;99.90
26505;DHT22;19493;48.042;7.584;2023-12-20T07:05:19;5.30;99.90
26505;DHT22;19493;48.042;7.584;2023-12-20T07:07:46;5.30;99.90
26505;DHT22;19493;48.042;7.584;2023-12-20T07:10:12;5.40;99.90
26505;DHT22;19493;48.042;7.584;2023-12-20T07:12:38;5.40;99.90
26505;DHT22;19493;48.042;7.584;2023-12-20T07:15:04;5.40;99.90
26505;DHT22;19493;48.042;7.584;2023-12-20T07:17:32;5.50;99.90
26505;DHT22;19493;48.042;7.584;2023-12-20T07:19:58;5.50;99.90
26505;DHT22;19493;48.042;7.584;2023-12-20T07:22:24;5.50;99.90
26505;DHT22;19493;48.042;7.584;2023-12-20T07:24:50;5.50;99.90
26505;DHT22;19493;48.042;7.584;2023-12-20T07:27:17;5.60;99.90
26505;DHT22;19493;48.042;7.584;2023-12-20T07:29:43;5.60;99.90
26505;DHT22;19493;48.042;7.584;2023-12-20T07:32:08;5.60;99.90
26505;DHT22;19493;48.042;7.584;2023-12-20T07:34:34;5.60;99.90
26505;DHT22;19493;48.042;7.584;2023-12-20T07:36:59;5.60;99.90
26505;DHT22;19493;48.042;7.584;2023-12-20T07:39:25;5.60;99.90
26505;DHT22;19493;48.042;7.584;2023-12-20T07:41:50;5.50;99.90
26505;DHT22;19493;48.042;7.584;2023-12-20T07:44:16;5.60;99.90
26505;DHT22;19493;48.042;7.584;2023-12-20T07:46:41;5.60;99.90
26505;DHT22;19493;48.042;7.584;2023-12-20T07:49:07;5.60;99.90
26505;DHT22;19493;48.042;7.584;2023-12-20T07:51:34;5.60;99.90
26505;DHT22;19493;48.042;7.584;2023-12-20T07:53:59;5.60;99.90
26505;DHT22;19493;48.042;7.584;2023-12-20T07:56:25;5.60;99.90
26505;DHT22;19493;48.042;7.584;2023-12-20T07:58:50;5.60;99.90
26505;DHT22;19493;48.042;7.584;2023-12-20T08:01:16;5.60;99.90
26505;DHT22;19493;48.042;7.584;2023-12-20T08:03:43;5.60;99.90
26505;DHT22;19493;48.042;7.584;2023-12-20T08:06:09;5.60;99.90
26505;DHT22;19493;48.042;7.584;2023-12-20T08:08:34;5.60;99.90
26505;DHT22;19493;48.042;7.584;2023-12-20T08:11:00;5.60;99.90
26505;DHT22;19493;48.042;7.584;2023-12-20T08:13:26;5.70;99.90
26505;DHT22;19493;48.042;7.584;2023-12-20T08:15:53;5.70;99.90
26505;DHT22;19493;48.042;7.584;2023-12-20T08:18:18;5.80;99.90
26505;DHT22;19493;48.042;7.584;2023-12-20T08:20:44;5.80;99.90
26505;DHT22;19493;48.042;7.584;2023-12-20T08:23:10;5.80;99.90
26505;DHT22;19493;48.042;7.584;2023-12-20T08:25:35;5.80;99.90
26505;DHT22;19493;48.042;7.584;2023-12-20T08:28:04;5.80;99.90
26505;DHT22;19493;48.042;7.584;2023-12-20T08:30:30;5.80;99.90
26505;DHT22;19493;48.042;7.584;2023-12-20T08:32:56;5.70;99.90
26505;DHT22;19493;48.042;7.584;2023-12-20T08:35:22;5.70;99.90
26505;DHT22;19493;48.042;7.584;2023-12-20T08:37:47;5.70;99.90
26505;DHT22;19493;48.042;7.584;2023-12-20T08:40:13;5.80;99.90
26505;DHT22;19493;48.042;7.584;2023-12-20T08:42:39;5.90;99.90
26505;DHT22;19493;48.042;7.584;2023-12-20T08:45:04;6.00;99.90
26505;DHT22;19493;48.042;7.584;2023-12-20T08:47:30;6.10;99.90
26505;DHT22;19493;48.042;7.584;2023-12-20T08:49:56;6.10;99.90
26505;DHT22;19493;48.042;7.584;2023-12-20T08:52:25;6.20;99.90
26505;DHT22;19493;48.042;7.584;2023-12-20T08:54:53;6.30;99.90
26505;DHT22;19493;48.042;7.584;2023-12-20T08:57:22;6.50;99.90
26505;DHT22;19493;48.042;7.584;2023-12-20T08:59:49;6.60;99.90
26505;DHT22;19493;48.042;7.584;2023-12-20T09:02:16;6.60;99.90
26505;DHT22;19493;48.042;7.584;2023-12-20T09:04:42;6.70;99.90
26505;DHT22;19493;48.042;7.584;2023-12-20T09:07:24;6.60;99.90
26505;DHT22;19493;48.042;7.584;2023-12-20T09:09:50;6.50;99.90
26505;DHT22;19493;48.042;7.584;2023-12-20T09:12:20;6.40;99.90
26505;DHT22;19493;48.042;7.584;2023-12-20T09:14:50;6.40;99.90
26505;DHT22;19493;48.042;7.584;2023-12-20T09:17:16;6.40;99.90
26505;DHT22;19493;48.042;7.584;2023-12-20T09:19:43;6.40;99.90
26505;DHT22;19493;48.042;7.584;2023-12-20T09:22:12;6.40;99.90
26505;DHT22;19493;48.042;7.584;2023-12-20T09:24:38;6.40;99.90
26505;DHT22;19493;48.042;7.584;2023-12-20T09:27:04;6.30;99.90
26505;DHT22;19493;48.042;7.584;2023-12-20T09:29:30;6.30;99.90
26505;DHT22;19493;48.042;7.584;2023-12-20T09:31:56;6.20;99.90
26505;DHT22;19493;48.042;7.584;2023-12-20T09:34:23;6.20;99.90
26505;DHT22;19493;48.042;7.584;2023-12-20T09:36:49;6.20;99.90
26505;DHT22;19493;48.042;7.584;2023-12-20T09:39:17;6.40;99.90
26505;DHT22;19493;48.042;7.584;2023-12-20T09:42:02;6.60;99.90
26505;DHT22;19493;48.042;7.584;2023-12-20T09:44:28;6.70;99.90
26505;DHT22;19493;48.042;7.584;2023-12-20T09:46:55;6.90;99.90
26505;DHT22;19493;48.042;7.584;2023-12-20T09:49:21;7.50;99.90
26505;DHT22;19493;48.042;7.584;2023-12-20T09:51:47;7.90;99.90
26505;DHT22;19493;48.042;7.584;2023-12-20T09:54:21;8.10;99.90
26505;DHT22;19493;48.042;7.584;2023-12-20T09:56:46;8.10;99.90
26505;DHT22;19493;48.042;7.584;2023-12-20T09:59:13;9.40;99.90
26505;DHT22;19493;48.042;7.584;2023-12-20T10:01:40;11.10;99.90
26505;DHT22;19493;48.042;7.584;2023-12-20T10:04:08;11.20;99.90
26505;DHT22;19493;48.042;7.584;2023-12-20T10:06:43;12.50;99.90
26505;DHT22;19493;48.042;7.584;2023-12-20T10:09:11;14.20;98.70
26505;DHT22;19493;48.042;7.584;2023-12-20T10:11:37;15.40;93.60
26505;DHT22;19493;48.042;7.584;2023-12-20T10:14:03;16.10;88.80
26505;DHT22;19493;48.042;7.584;2023-12-20T10:16:29;16.30;82.50
26505;DHT22;19493;48.042;7.584;2023-12-20T10:18:55;16.50;74.30
26505;DHT22;19493;48.042;7.584;2023-12-20T10:21:22;16.20;71.60
26505;DHT22;19493;48.042;7.584;2023-12-20T10:23:48;16.60;70.80
26505;DHT22;19493;48.042;7.584;2023-12-20T10:26:24;16.90;69.20
26505;DHT22;19493;48.042;7.584;2023-12-20T10:28:54;17.00;66.90
26505;DHT22;19493;48.042;7.584;2023-12-20T10:33:53;17.10;62.60
26505;DHT22;19493;48.042;7.584;2023-12-20T10:36:18;16.60;64.00
26505;DHT22;19493;48.042;7.584;2023-12-20T10:38:44;17.10;63.10
26505;DHT22;19493;48.042;7.584;2023-12-20T10:41:11;17.60;61.70
26505;DHT22;19493;48.042;7.584;2023-12-20T10:43:38;18.50;61.30
26505;DHT22;19493;48.042;7.584;2023-12-20T10:46:05;18.90;58.30
26505;DHT22;19493;48.042;7.584;2023-12-20T10:48:32;18.90;56.20
26505;DHT22;19493;48.042;7.584;2023-12-20T10:50:58;18.60;57.80
26505;DHT22;19493;48.042;7.584;2023-12-20T10:53:25;18.40;56.70
26505;DHT22;19493;48.042;7.584;2023-12-20T10:55:52;18.50;56.40
26505;DHT22;19493;48.042;7.584;2023-12-20T10:58:20;16.30;58.50
26505;DHT22;19493;48.042;7.584;2023-12-20T11:00:47;15.20;62.50
26505;DHT22;19493;48.042;7.584;2023-12-20T11:03:18;16.20;63.20
26505;DHT22;19493;48.042;7.584;2023-12-20T11:08:22;17.50;59.80
26505;DHT22;19493;48.042;7.584;2023-12-20T11:11:23;17.90;56.40
26505;DHT22;19493;48.042;7.584;2023-12-20T11:13:59;17.10;57.00
26505;DHT22;19493;48.042;7.584;2023-12-20T11:16:25;16.90;57.90
26505;DHT22;19493;48.042;7.584;2023-12-20T11:18:51;15.00;60.00
26505;DHT22;19493;48.042;7.584;2023-12-20T11:21:16;14.10;63.60
26505;DHT22;19493;48.042;7.584;2023-12-20T11:23:42;14.50;65.80
26505;DHT22;19493;48.042;7.584;2023-12-20T11:26:08;15.60;64.20
26505;DHT22;19493;48.042;7.584;2023-12-20T11:28:33;17.20;60.40
26505;DHT22;19493;48.042;7.584;2023-12-20T11:31:01;17.90;57.10
26505;DHT22;19493;48.042;7.584;2023-12-20T11:33:30;18.00;56.20
26505;DHT22;19493;48.042;7.584;2023-12-20T11:35:57;18.00;54.60
26505;DHT22;19493;48.042;7.584;2023-12-20T11:38:23;18.60;55.00
26505;DHT22;19493;48.042;7.584;2023-12-20T11:40:49;18.80;53.00
26505;DHT22;19493;48.042;7.584;2023-12-20T11:43:38;18.80;51.20
26505;DHT22;19493;48.042;7.584;2023-12-20T11:46:08;18.80;49.90
26505;DHT22;19493;48.042;7.584;2023-12-20T11:48:38;19.10;50.20
26505;DHT22;19493;48.042;7.584;2023-12-20T11:51:12;19.80;49.70
26505;DHT22;19493;48.042;7.584;2023-12-20T11:53:41;20.50;46.80
26505;DHT22;19493;48.042;7.584;2023-12-20T11:56:10;20.80;47.10
26505;DHT22;19493;48.042;7.584;2023-12-20T11:58:36;21.80;46.70
26505;DHT22;19493;48.042;7.584;2023-12-20T12:01:02;22.00;45.00
26505;DHT22;19493;48.042;7.584;2023-12-20T12:03:28;20.90;45.80
26505;DHT22;19493;48.042;7.584;2023-12-20T12:05:53;20.70;46.80
26505;DHT22;19493;48.042;7.584;2023-12-20T12:08:19;20.60;46.90
26505;DHT22;19493;48.042;7.584;2023-12-20T12:10:45;19.50;47.00
26505;DHT22;19493;48.042;7.584;2023-12-20T12:13:10;17.30;50.60
26505;DHT22;19493;48.042;7.584;2023-12-20T12:15:37;15.30;54.50
26505;DHT22;19493;48.042;7.584;2023-12-20T12:18:03;13.40;58.20
26505;DHT22;19493;48.042;7.584;2023-12-20T12:22:16;11.50;64.50
26505;DHT22;19493;48.042;7.584;2023-12-20T12:24:43;10.80;67.90
26505;DHT22;19493;48.042;7.584;2023-12-20T12:27:10;10.20;70.60
26505;DHT22;19493;48.042;7.584;2023-12-20T12:29:36;9.90;73.00
26505;DHT22;19493;48.042;7.584;2023-12-20T12:32:09;9.60;73.80
26505;DHT22;19493;48.042;7.584;2023-12-20T12:34:35;9.50;75.20
26505;DHT22;19493;48.042;7.584;2023-12-20T12:37:01;9.40;76.80
26505;DHT22;19493;48.042;7.584;2023-12-20T12:39:27;9.20;77.60
26505;DHT22;19493;48.042;7.584;2023-12-20T12:41:55;9.10;79.00
26505;DHT22;19493;48.042;7.584;2023-12-20T12:44:21;9.00;79.00
26505;DHT22;19493;48.042;7.584;2023-12-20T12:46:49;8.90;81.10
26505;DHT22;19493;48.042;7.584;2023-12-20T12:49:21;8.80;81.20
26505;DHT22;19493;48.042;7.584;2023-12-20T12:51:47;8.70;82.00
26505;DHT22;19493;48.042;7.584;2023-12-20T12:54:13;8.70;82.80
26505;DHT22;19493;48.042;7.584;2023-12-20T12:56:41;8.60;83.50
26505;DHT22;19493;48.042;7.584;2023-12-20T12:59:06;8.60;84.80
26505;DHT22;19493;48.042;7.584;2023-12-20T13:01:32;8.60;84.70
26505;DHT22;19493;48.042;7.584;2023-12-20T13:03:58;8.60;86.00
26505;DHT22;19493;48.042;7.584;2023-12-20T13:06:23;8.60;86.60
26505;DHT22;19493;48.042;7.584;2023-12-20T13:08:49;8.70;86.90
26505;DHT22;19493;48.042;7.584;2023-12-20T13:11:15;8.70;87.40
26505;DHT22;19493;48.042;7.584;2023-12-20T13:13:41;8.80;87.70
26505;DHT22;19493;48.042;7.584;2023-12-20T13:16:07;8.80;87.70
26505;DHT22;19493;48.042;7.584;2023-12-20T13:18:33;8.90;87.90
26505;DHT22;19493;48.042;7.584;2023-12-20T13:20:58;8.90;87.80
26505;DHT22;19493;48.042;7.584;2023-12-20T13:23:24;8.90;86.30
26505;DHT22;19493;48.042;7.584;2023-12-20T13:25:50;9.00;86.70
26505;DHT22;19493;48.042;7.584;2023-12-20T13:28:16;9.30;85.40
26505;DHT22;19493;48.042;7.584;2023-12-20T13:30:41;9.30;85.70
26505;DHT22;19493;48.042;7.584;2023-12-20T13:33:07;9.40;85.00
26505;DHT22;19493;48.042;7.584;2023-12-20T13:35:33;9.40;84.80
26505;DHT22;19493;48.042;7.584;2023-12-20T13:38:00;9.50;84.20
26505;DHT22;19493;48.042;7.584;2023-12-20T13:40:26;9.40;84.30
26505;DHT22;19493;48.042;7.584;2023-12-20T13:42:51;9.50;85.10
26505;DHT22;19493;48.042;7.584;2023-12-20T13:45:17;9.30;84.60
26505;DHT22;19493;48.042;7.584;2023-12-20T13:47:43;9.30;85.70
26505;DHT22;19493;48.042;7.584;2023-12-20T13:50:08;9.30;85.60
26505;DHT22;19493;48.042;7.584;2023-12-20T13:52:35;9.10;84.90
26505;DHT22;19493;48.042;7.584;2023-12-20T13:55:01;9.00;86.00
26505;DHT22;19493;48.042;7.584;2023-12-20T13:57:27;8.90;86.30
26505;DHT22;19493;48.042;7.584;2023-12-20T13:59:54;8.80;87.00
26505;DHT22;19493;48.042;7.584;2023-12-20T14:02:19;8.70;88.10
26505;DHT22;19493;48.042;7.584;2023-12-20T14:04:45;8.60;89.30
26505;DHT22;19493;48.042;7.584;2023-12-20T14:07:11;8.60;90.00
26505;DHT22;19493;48.042;7.584;2023-12-20T14:09:36;8.60;90.50
26505;DHT22;19493;48.042;7.584;2023-12-20T14:12:02;8.60;90.40
26505;DHT22;19493;48.042;7.584;2023-12-20T14:14:28;8.60;90.20
26505;DHT22;19493;48.042;7.584;2023-12-20T14:16:54;8.60;90.30
26505;DHT22;19493;48.042;7.584;2023-12-20T14:19:19;8.60;90.20
26505;DHT22;19493;48.042;7.584;2023-12-20T14:21:45;8.60;90.60
26505;DHT22;19493;48.042;7.584;2023-12-20T14:24:13;8.50;91.00
26505;DHT22;19493;48.042;7.584;2023-12-20T14:26:40;8.50;91.40
26505;DHT22;19493;48.042;7.584;2023-12-20T14:29:06;8.40;91.80
26505;DHT22;19493;48.042;7.584;2023-12-20T14:31:33;8.30;92.20
26505;DHT22;19493;48.042;7.584;2023-12-20T14:33:58;8.20;92.60
26505;DHT22;19493;48.042;7.584;2023-12-20T14:36:25;8.20;92.60
26505;DHT22;19493;48.042;7.584;2023-12-20T14:38:50;8.20;92.10
26505;DHT22;19493;48.042;7.584;2023-12-20T14:41:16;8.20;92.60
26505;DHT22;19493;48.042;7.584;2023-12-20T14:43:44;8.20;93.00
26505;DHT22;19493;48.042;7.584;2023-12-20T14:46:10;8.10;93.10
26505;DHT22;19493;48.042;7.584;2023-12-20T14:48:35;8.10;94.60
26505;DHT22;19493;48.042;7.584;2023-12-20T14:51:01;8.10;95.00
26505;DHT22;19493;48.042;7.584;2023-12-20T14:53:26;8.00;96.40
26505;DHT22;19493;48.042;7.584;2023-12-20T14:55:52;7.90;97.90
26505;DHT22;19493;48.042;7.584;2023-12-20T14:58:18;7.80;99.30
26505;DHT22;19493;48.042;7.584;2023-12-20T15:00:43;7.70;99.90
26505;DHT22;19493;48.042;7.584;2023-12-20T15:03:10;7.70;99.90
26505;DHT22;19493;48.042;7.584;2023-12-20T15:05:36;7.60;99.90
26505;DHT22;19493;48.042;7.584;2023-12-20T15:08:02;7.50;99.90
26505;DHT22;19493;48.042;7.584;2023-12-20T15:10:28;7.50;99.90
26505;DHT22;19493;48.042;7.584;2023-12-20T15:12:53;7.40;99.90
26505;DHT22;19493;48.042;7.584;2023-12-20T15:15:20;7.30;99.90
26505;DHT22;19493;48.042;7.584;2023-12-20T15:17:46;7.20;99.90
26505;DHT22;19493;48.042;7.584;2023-12-20T15:20:12;7.10;99.90
26505;DHT22;19493;48.042;7.584;2023-12-20T15:22:37;7.00;99.90
26505;DHT22;19493;48.042;7.584;2023-12-20T15:25:05;6.80;99.90
26505;DHT22;19493;48.042;7.584;2023-12-20T15:27:33;6.70;99.90
26505;DHT22;19493;48.042;7.584;2023-12-20T15:30:01;6.60;99.90
26505;DHT22;19493;48.042;7.584;2023-12-20T15:32:26;6.50;99.90
26505;DHT22;19493;48.042;7.584;2023-12-20T15:34:52;6.40;99.90
26505;DHT22;19493;48.042;7.584;2023-12-20T15:37:18;6.30;99.90
26505;DHT22;19493;48.042;7.584;2023-12-20T15:39:44;6.20;99.90
26505;DHT22;19493;48.042;7.584;2023-12-20T15:42:09;6.20;99.90
26505;DHT22;19493;48.042;7.584;2023-12-20T15:44:35;6.10;99.90
26505;DHT22;19493;48.042;7.584;2023-12-20T15:47:00;6.00;99.90